CheckWX is a tool to help pilots better visualize weather data.  It is not intended as a substitute for an official pre-flight weather briefing.

15:16:51 UTC

KHWY METAR
Warrenton-Fauquier Airport
Warrenton, Virginia, USA
Current

22 mins ago

KHWY 201455Z AUTO 20007KT 10SM CLR 29/18 A2989 RMK AO2 P0010 6//// T02880178
Observed
May-20 @ 14:55 UTC
Wind
  • 200° at 7 KTS
Visibility
10 SM
Flight Rules
VFR
Cloud Levels
  • Clear skies
Temperature
29°C / 84°F
Dewpoint
18°C / 64°F
Heat Index
29°C / 85°F
Humidity
51%
Altimeter
29.89" Hg
Pressure
1012.22 hPa
Current Rain
0.1"
Previous

42 mins ago

KHWY 201435Z AUTO 19007KT 10SM CLR 28/18 A2990 RMK AO2 P0010 T02790177
Observed
May-20 @ 14:35 UTC
Wind
  • 190° at 7 KTS
Visibility
10 SM
Flight Rules
VFR
Cloud Levels
  • Clear skies
Temperature
28°C / 82°F
Dewpoint
18°C / 64°F
Heat Index
29°C / 84°F
Humidity
55%
Altimeter
29.9" Hg
Pressure
1012.52 hPa
Current Rain
0.1"
Previous

2 hours ago

KHWY 201335Z AUTO 18006KT 10SM CLR 26/18 A2990 RMK AO2 T02640177
Observed
May-20 @ 13:35 UTC
Wind
  • 180° at 6 KTS
Visibility
10 SM
Flight Rules
VFR
Cloud Levels
  • Clear skies
Temperature
26°C / 79°F
Dewpoint
18°C / 64°F
Humidity
61%
Altimeter
29.9" Hg
Pressure
1012.52 hPa